sensor_id;sensor_type;location;lat;lon;timestamp;temperature;humidity
10051;DHT22;5065;46.942;7.432;2024-02-28T00:01:15;9.80;99.90
10051;DHT22;5065;46.942;7.432;2024-02-28T00:03:42;9.70;99.90
10051;DHT22;5065;46.942;7.432;2024-02-28T00:06:10;9.80;99.90
10051;DHT22;5065;46.942;7.432;2024-02-28T00:08:38;9.70;99.90
10051;DHT22;5065;46.942;7.432;2024-02-28T00:11:05;9.80;99.90
10051;DHT22;5065;46.942;7.432;2024-02-28T00:13:32;9.80;99.90
10051;DHT22;5065;46.942;7.432;2024-02-28T00:15:59;9.80;99.90
10051;DHT22;5065;46.942;7.432;2024-02-28T00:18:27;9.70;99.90
10051;DHT22;5065;46.942;7.432;2024-02-28T00:20:54;9.70;99.90
10051;DHT22;5065;46.942;7.432;2024-02-28T00:23:21;9.60;99.90
10051;DHT22;5065;46.942;7.432;2024-02-28T00:25:49;9.70;99.90
10051;DHT22;5065;46.942;7.432;2024-02-28T00:28:16;9.70;99.90
10051;DHT22;5065;46.942;7.432;2024-02-28T00:30:42;9.60;99.90
10051;DHT22;5065;46.942;7.432;2024-02-28T00:33:09;9.70;99.90
10051;DHT22;5065;46.942;7.432;2024-02-28T00:35:36;9.70;99.90
10051;DHT22;5065;46.942;7.432;2024-02-28T00:38:04;9.80;99.90
10051;DHT22;5065;46.942;7.432;2024-02-28T00:40:31;9.80;99.90
10051;DHT22;5065;46.942;7.432;2024-02-28T00:42:59;9.80;99.90
10051;DHT22;5065;46.942;7.432;2024-02-28T00:45:26;9.70;99.90
10051;DHT22;5065;46.942;7.432;2024-02-28T00:47:54;9.70;99.90
10051;DHT22;5065;46.942;7.432;2024-02-28T00:50:22;9.80;99.90
10051;DHT22;5065;46.942;7.432;2024-02-28T00:52:49;9.70;99.90
10051;DHT22;5065;46.942;7.432;2024-02-28T00:55:16;9.60;99.90
10051;DHT22;5065;46.942;7.432;2024-02-28T00:57:44;9.70;99.90
10051;DHT22;5065;46.942;7.432;2024-02-28T01:00:14;9.80;99.90
10051;DHT22;5065;46.942;7.432;2024-02-28T01:02:41;9.80;99.90
10051;DHT22;5065;46.942;7.432;2024-02-28T01:05:08;9.80;99.90
10051;DHT22;5065;46.942;7.432;2024-02-28T01:07:35;9.70;99.90
10051;DHT22;5065;46.942;7.432;2024-02-28T01:10:03;9.80;99.90
10051;DHT22;5065;46.942;7.432;2024-02-28T01:12:30;9.80;99.90
10051;DHT22;5065;46.942;7.432;2024-02-28T01:14:57;9.80;99.90
10051;DHT22;5065;46.942;7.432;2024-02-28T01:17:26;9.80;99.90
10051;DHT22;5065;46.942;7.432;2024-02-28T01:19:53;9.80;99.90
10051;DHT22;5065;46.942;7.432;2024-02-28T01:22:20;9.80;99.90
10051;DHT22;5065;46.942;7.432;2024-02-28T01:24:47;9.80;99.90
10051;DHT22;5065;46.942;7.432;2024-02-28T01:27:14;9.80;99.90
10051;DHT22;5065;46.942;7.432;2024-02-28T01:29:41;9.80;99.90
10051;DHT22;5065;46.942;7.432;2024-02-28T01:32:08;9.70;99.90
10051;DHT22;5065;46.942;7.432;2024-02-28T01:34:37;9.70;99.90
10051;DHT22;5065;46.942;7.432;2024-02-28T01:37:04;9.70;99.90
10051;DHT22;5065;46.942;7.432;2024-02-28T01:39:31;9.70;99.90
10051;DHT22;5065;46.942;7.432;2024-02-28T01:41:58;9.70;99.90
10051;DHT22;5065;46.942;7.432;2024-02-28T01:44:25;9.70;99.90
10051;DHT22;5065;46.942;7.432;2024-02-28T01:46:52;9.70;99.90
10051;DHT22;5065;46.942;7.432;2024-02-28T01:49:21;9.70;99.90
10051;DHT22;5065;46.942;7.432;2024-02-28T01:51:49;9.70;99.90
10051;DHT22;5065;46.942;7.432;2024-02-28T01:54:18;9.70;99.90
10051;DHT22;5065;46.942;7.432;2024-02-28T01:56:46;9.70;99.90
10051;DHT22;5065;46.942;7.432;2024-02-28T01:59:14;9.70;99.90
10051;DHT22;5065;46.942;7.432;2024-02-28T02:01:41;9.70;99.90
10051;DHT22;5065;46.942;7.432;2024-02-28T02:04:09;9.60;99.90
10051;DHT22;5065;46.942;7.432;2024-02-28T02:06:38;9.60;99.90
10051;DHT22;5065;46.942;7.432;2024-02-28T02:09:10;9.70;99.90
10051;DHT22;5065;46.942;7.432;2024-02-28T02:11:38;9.60;99.90
10051;DHT22;5065;46.942;7.432;2024-02-28T02:14:05;9.60;99.90
10051;DHT22;5065;46.942;7.432;2024-02-28T02:16:32;9.70;99.90
10051;DHT22;5065;46.942;7.432;2024-02-28T02:19:00;9.70;99.90
10051;DHT22;5065;46.942;7.432;2024-02-28T02:21:30;9.60;99.90
10051;DHT22;5065;46.942;7.432;2024-02-28T02:23:59;9.60;99.90
10051;DHT22;5065;46.942;7.432;2024-02-28T02:26:26;9.70;99.90
10051;DHT22;5065;46.942;7.432;2024-02-28T02:28:53;9.70;99.90
10051;DHT22;5065;46.942;7.432;2024-02-28T02:31:20;9.70;99.90
10051;DHT22;5065;46.942;7.432;2024-02-28T02:33:47;9.70;99.90
10051;DHT22;5065;46.942;7.432;2024-02-28T02:36:14;9.80;99.90
10051;DHT22;5065;46.942;7.432;2024-02-28T02:38:42;9.80;99.90
10051;DHT22;5065;46.942;7.432;2024-02-28T02:41:10;9.70;99.90
10051;DHT22;5065;46.942;7.432;2024-02-28T02:43:37;9.70;99.90
10051;DHT22;5065;46.942;7.432;2024-02-28T02:46:04;9.70;99.90
10051;DHT22;5065;46.942;7.432;2024-02-28T02:48:31;9.60;99.90
10051;DHT22;5065;46.942;7.432;2024-02-28T02:50:59;9.60;99.90
10051;DHT22;5065;46.942;7.432;2024-02-28T02:53:26;9.70;99.90
10051;DHT22;5065;46.942;7.432;2024-02-28T02:55:53;9.60;99.90
10051;DHT22;5065;46.942;7.432;2024-02-28T02:58:21;9.60;99.90
10051;DHT22;5065;46.942;7.432;2024-02-28T03:00:48;9.60;99.90
10051;DHT22;5065;46.942;7.432;2024-02-28T03:03:16;9.60;99.90
10051;DHT22;5065;46.942;7.432;2024-02-28T03:05:43;9.60;99.90
10051;DHT22;5065;46.942;7.432;2024-02-28T03:08:10;9.60;99.90
10051;DHT22;5065;46.942;7.432;2024-02-28T03:10:37;9.60;99.90
10051;DHT22;5065;46.942;7.432;2024-02-28T03:13:04;9.60;99.90
10051;DHT22;5065;46.942;7.432;2024-02-28T03:15:33;9.60;99.90
10051;DHT22;5065;46.942;7.432;2024-02-28T03:18:01;9.60;99.90
10051;DHT22;5065;46.942;7.432;2024-02-28T03:20:28;9.40;99.90
10051;DHT22;5065;46.942;7.432;2024-02-28T03:22:55;9.30;99.90
10051;DHT22;5065;46.942;7.432;2024-02-28T03:25:22;9.30;99.90
10051;DHT22;5065;46.942;7.432;2024-02-28T03:27:49;9.30;99.90
10051;DHT22;5065;46.942;7.432;2024-02-28T03:30:16;9.40;99.90
10051;DHT22;5065;46.942;7.432;2024-02-28T03:32:45;9.40;99.90
10051;DHT22;5065;46.942;7.432;2024-02-28T03:35:12;9.50;99.90
10051;DHT22;5065;46.942;7.432;2024-02-28T03:37:39;9.50;99.90
10051;DHT22;5065;46.942;7.432;2024-02-28T03:40:07;9.50;99.90
10051;DHT22;5065;46.942;7.432;2024-02-28T03:42:35;9.60;99.90
10051;DHT22;5065;46.942;7.432;2024-02-28T03:45:02;9.50;99.90
10051;DHT22;5065;46.942;7.432;2024-02-28T03:47:30;9.60;99.90
10051;DHT22;5065;46.942;7.432;2024-02-28T03:49:58;9.50;99.90
10051;DHT22;5065;46.942;7.432;2024-02-28T03:52:27;9.50;99.90
10051;DHT22;5065;46.942;7.432;2024-02-28T03:54:55;9.40;99.90
10051;DHT22;5065;46.942;7.432;2024-02-28T03:57:22;9.50;99.90
10051;DHT22;5065;46.942;7.432;2024-02-28T03:59:49;9.50;99.90
10051;DHT22;5065;46.942;7.432;2024-02-28T04:02:17;9.50;99.90
10051;DHT22;5065;46.942;7.432;2024-02-28T04:04:44;9.50;99.90
10051;DHT22;5065;46.942;7.432;2024-02-28T04:07:12;9.50;99.90
10051;DHT22;5065;46.942;7.432;2024-02-28T04:09:39;9.50;99.90
10051;DHT22;5065;46.942;7.432;2024-02-28T04:12:07;9.50;99.90
10051;DHT22;5065;46.942;7.432;2024-02-28T04:14:37;9.40;99.90
10051;DHT22;5065;46.942;7.432;2024-02-28T04:17:04;9.50;99.90
10051;DHT22;5065;46.942;7.432;2024-02-28T04:19:33;9.50;99.90
10051;DHT22;5065;46.942;7.432;2024-02-28T04:22:02;9.50;99.90
10051;DHT22;5065;46.942;7.432;2024-02-28T04:24:30;9.50;99.90
10051;DHT22;5065;46.942;7.432;2024-02-28T04:26:57;9.50;99.90
10051;DHT22;5065;46.942;7.432;2024-02-28T04:29:25;9.50;99.90
10051;DHT22;5065;46.942;7.432;2024-02-28T04:31:52;9.50;99.90
10051;DHT22;5065;46.942;7.432;2024-02-28T04:34:19;9.50;99.90
10051;DHT22;5065;46.942;7.432;2024-02-28T04:36:46;9.30;99.90
10051;DHT22;5065;46.942;7.432;2024-02-28T04:39:13;9.30;99.90
10051;DHT22;5065;46.942;7.432;2024-02-28T04:41:42;9.30;99.90
10051;DHT22;5065;46.942;7.432;2024-02-28T04:44:09;9.30;99.90
10051;DHT22;5065;46.942;7.432;2024-02-28T04:46:37;9.40;99.90
10051;DHT22;5065;46.942;7.432;2024-02-28T04:49:04;9.50;99.90
10051;DHT22;5065;46.942;7.432;2024-02-28T04:51:31;9.50;99.90
10051;DHT22;5065;46.942;7.432;2024-02-28T04:53:58;9.50;99.90
10051;DHT22;5065;46.942;7.432;2024-02-28T04:56:25;9.50;99.90
10051;DHT22;5065;46.942;7.432;2024-02-28T04:58:54;9.50;99.90
10051;DHT22;5065;46.942;7.432;2024-02-28T05:01:21;9.50;99.90
10051;DHT22;5065;46.942;7.432;2024-02-28T05:03:48;9.50;99.90
10051;DHT22;5065;46.942;7.432;2024-02-28T05:06:15;9.50;99.90
10051;DHT22;5065;46.942;7.432;2024-02-28T05:08:42;9.40;99.90
10051;DHT22;5065;46.942;7.432;2024-02-28T05:11:09;9.40;99.90
10051;DHT22;5065;46.942;7.432;2024-02-28T05:13:36;9.30;99.90
10051;DHT22;5065;46.942;7.432;2024-02-28T05:16:12;9.30;99.90
10051;DHT22;5065;46.942;7.432;2024-02-28T05:18:39;9.30;99.90
10051;DHT22;5065;46.942;7.432;2024-02-28T05:21:06;9.30;99.90
10051;DHT22;5065;46.942;7.432;2024-02-28T05:23:33;9.20;99.90
10051;DHT22;5065;46.942;7.432;2024-02-28T05:26:02;9.30;99.90
10051;DHT22;5065;46.942;7.432;2024-02-28T05:28:29;9.30;99.90
10051;DHT22;5065;46.942;7.432;2024-02-28T05:30:57;9.20;99.90
10051;DHT22;5065;46.942;7.432;2024-02-28T05:33:26;9.20;99.90
10051;DHT22;5065;46.942;7.432;2024-02-28T05:35:53;9.20;99.90
10051;DHT22;5065;46.942;7.432;2024-02-28T05:38:20;9.20;99.90
10051;DHT22;5065;46.942;7.432;2024-02-28T05:40:47;9.20;99.90
10051;DHT22;5065;46.942;7.432;2024-02-28T05:43:14;9.20;99.90
10051;DHT22;5065;46.942;7.432;2024-02-28T05:45:41;9.30;99.90
10051;DHT22;5065;46.942;7.432;2024-02-28T05:48:08;9.30;99.90
10051;DHT22;5065;46.942;7.432;2024-02-28T05:50:37;9.30;99.90
10051;DHT22;5065;46.942;7.432;2024-02-28T05:53:04;9.30;99.90
10051;DHT22;5065;46.942;7.432;2024-02-28T05:55:31;9.30;99.90
10051;DHT22;5065;46.942;7.432;2024-02-28T05:57:58;9.20;99.90
10051;DHT22;5065;46.942;7.432;2024-02-28T06:00:26;9.20;99.90
10051;DHT22;5065;46.942;7.432;2024-02-28T06:02:54;9.20;99.90
10051;DHT22;5065;46.942;7.432;2024-02-28T06:05:21;9.20;99.90
10051;DHT22;5065;46.942;7.432;2024-02-28T06:07:50;9.20;99.90
10051;DHT22;5065;46.942;7.432;2024-02-28T06:10:17;9.30;99.90
10051;DHT22;5065;46.942;7.432;2024-02-28T06:12:44;9.30;99.90
10051;DHT22;5065;46.942;7.432;2024-02-28T06:15:11;9.30;99.90
10051;DHT22;5065;46.942;7.432;2024-02-28T06:17:38;9.30;99.90
10051;DHT22;5065;46.942;7.432;2024-02-28T06:20:07;9.30;99.90
10051;DHT22;5065;46.942;7.432;2024-02-28T06:22:34;9.30;99.90
10051;DHT22;5065;46.942;7.432;2024-02-28T06:25:02;9.30;99.90
10051;DHT22;5065;46.942;7.432;2024-02-28T06:27:33;9.30;99.90
10051;DHT22;5065;46.942;7.432;2024-02-28T06:30:00;9.30;99.90
10051;DHT22;5065;46.942;7.432;2024-02-28T06:32:28;9.30;99.90
10051;DHT22;5065;46.942;7.432;2024-02-28T06:34:55;9.40;99.90
10051;DHT22;5065;46.942;7.432;2024-02-28T06:37:22;9.40;99.90
10051;DHT22;5065;46.942;7.432;2024-02-28T06:39:49;9.50;99.90
10051;DHT22;5065;46.942;7.432;2024-02-28T06:42:17;9.50;99.90
10051;DHT22;5065;46.942;7.432;2024-02-28T06:44:44;9.50;99.90
10051;DHT22;5065;46.942;7.432;2024-02-28T06:47:11;9.50;99.90
10051;DHT22;5065;46.942;7.432;2024-02-28T06:49:38;9.50;99.90
10051;DHT22;5065;46.942;7.432;2024-02-28T06:52:06;9.50;99.90
10051;DHT22;5065;46.942;7.432;2024-02-28T06:54:33;9.40;99.90
10051;DHT22;5065;46.942;7.432;2024-02-28T06:57:00;9.50;99.90
10051;DHT22;5065;46.942;7.432;2024-02-28T06:59:29;9.40;99.90
10051;DHT22;5065;46.942;7.432;2024-02-28T07:01:57;9.50;99.90
10051;DHT22;5065;46.942;7.432;2024-02-28T07:04:24;9.50;99.90
10051;DHT22;5065;46.942;7.432;2024-02-28T07:06:51;9.50;99.90
10051;DHT22;5065;46.942;7.432;2024-02-28T07:09:18;9.40;99.90
10051;DHT22;5065;46.942;7.432;2024-02-28T07:11:45;9.30;99.90
10051;DHT22;5065;46.942;7.432;2024-02-28T07:14:13;9.20;99.90
10051;DHT22;5065;46.942;7.432;2024-02-28T07:16:41;9.30;99.90
10051;DHT22;5065;46.942;7.432;2024-02-28T07:19:09;9.40;99.90
10051;DHT22;5065;46.942;7.432;2024-02-28T07:21:36;9.40;99.90
10051;DHT22;5065;46.942;7.432;2024-02-28T07:24:04;9.30;99.90
10051;DHT22;5065;46.942;7.432;2024-02-28T07:26:32;9.30;99.90
10051;DHT22;5065;46.942;7.432;2024-02-28T07:28:59;9.20;99.90
10051;DHT22;5065;46.942;7.432;2024-02-28T07:31:27;9.10;99.90
10051;DHT22;5065;46.942;7.432;2024-02-28T07:33:55;9.20;99.90
10051;DHT22;5065;46.942;7.432;2024-02-28T07:36:23;9.20;99.90
10051;DHT22;5065;46.942;7.432;2024-02-28T07:38:50;9.20;99.90
10051;DHT22;5065;46.942;7.432;2024-02-28T07:41:18;9.20;99.90
10051;DHT22;5065;46.942;7.432;2024-02-28T07:43:45;9.20;99.90
10051;DHT22;5065;46.942;7.432;2024-02-28T07:46:12;9.30;99.90
10051;DHT22;5065;46.942;7.432;2024-02-28T07:48:39;9.30;99.90
10051;DHT22;5065;46.942;7.432;2024-02-28T07:51:08;9.20;99.90
10051;DHT22;5065;46.942;7.432;2024-02-28T07:53:35;9.20;99.90
10051;DHT22;5065;46.942;7.432;2024-02-28T07:56:03;9.20;99.90
10051;DHT22;5065;46.942;7.432;2024-02-28T07:58:30;9.30;99.90
10051;DHT22;5065;46.942;7.432;2024-02-28T08:00:57;9.30;99.90
10051;DHT22;5065;46.942;7.432;2024-02-28T08:03:24;9.30;99.90
10051;DHT22;5065;46.942;7.432;2024-02-28T08:05:51;9.30;99.90
10051;DHT22;5065;46.942;7.432;2024-02-28T08:08:20;9.20;99.90
10051;DHT22;5065;46.942;7.432;2024-02-28T08:10:47;9.20;99.90
10051;DHT22;5065;46.942;7.432;2024-02-28T08:13:14;9.30;99.90
10051;DHT22;5065;46.942;7.432;2024-02-28T08:15:41;9.30;99.90
10051;DHT22;5065;46.942;7.432;2024-02-28T08:18:08;9.30;99.90
10051;DHT22;5065;46.942;7.432;2024-02-28T08:20:36;9.30;99.90
10051;DHT22;5065;46.942;7.432;2024-02-28T08:23:04;9.40;99.90
10051;DHT22;5065;46.942;7.432;2024-02-28T08:25:32;9.30;99.90
10051;DHT22;5065;46.942;7.432;2024-02-28T08:27:59;9.30;99.90
10051;DHT22;5065;46.942;7.432;2024-02-28T08:30:26;9.20;99.90
10051;DHT22;5065;46.942;7.432;2024-02-28T08:32:53;9.10;99.90
10051;DHT22;5065;46.942;7.432;2024-02-28T08:35:21;9.10;99.90
10051;DHT22;5065;46.942;7.432;2024-02-28T08:37:49;9.20;99.90
10051;DHT22;5065;46.942;7.432;2024-02-28T08:40:16;9.20;99.90
10051;DHT22;5065;46.942;7.432;2024-02-28T08:42:45;9.20;99.90
10051;DHT22;5065;46.942;7.432;2024-02-28T08:45:12;9.20;99.90
10051;DHT22;5065;46.942;7.432;2024-02-28T08:47:39;9.20;99.90
10051;DHT22;5065;46.942;7.432;2024-02-28T08:50:07;9.20;99.90
10051;DHT22;5065;46.942;7.432;2024-02-28T08:52:34;9.10;99.90
10051;DHT22;5065;46.942;7.432;2024-02-28T08:55:01;9.10;99.90
10051;DHT22;5065;46.942;7.432;2024-02-28T08:57:29;9.10;99.90
10051;DHT22;5065;46.942;7.432;2024-02-28T08:59:58;9.30;99.90
10051;DHT22;5065;46.942;7.432;2024-02-28T09:02:25;9.20;99.90
10051;DHT22;5065;46.942;7.432;2024-02-28T09:04:52;9.10;99.90
10051;DHT22;5065;46.942;7.432;2024-02-28T09:07:22;9.20;99.90
10051;DHT22;5065;46.942;7.432;2024-02-28T09:09:49;9.20;99.90
10051;DHT22;5065;46.942;7.432;2024-02-28T09:12:16;9.30;99.90
10051;DHT22;5065;46.942;7.432;2024-02-28T09:14:43;9.30;99.90
10051;DHT22;5065;46.942;7.432;2024-02-28T09:17:12;9.40;99.90
10051;DHT22;5065;46.942;7.432;2024-02-28T09:19:39;9.40;99.90
10051;DHT22;5065;46.942;7.432;2024-02-28T09:22:06;9.30;99.90
10051;DHT22;5065;46.942;7.432;2024-02-28T09:24:34;9.40;99.90
10051;DHT22;5065;46.942;7.432;2024-02-28T09:27:02;9.40;99.90
10051;DHT22;5065;46.942;7.432;2024-02-28T09:29:29;9.40;99.90
10051;DHT22;5065;46.942;7.432;2024-02-28T09:31:56;9.30;99.90
10051;DHT22;5065;46.942;7.432;2024-02-28T09:34:25;9.30;99.90
10051;DHT22;5065;46.942;7.432;2024-02-28T09:36:52;9.30;99.90
10051;DHT22;5065;46.942;7.432;2024-02-28T09:39:19;9.30;99.90
10051;DHT22;5065;46.942;7.432;2024-02-28T09:41:48;9.30;99.90
10051;DHT22;5065;46.942;7.432;2024-02-28T09:44:16;9.30;99.90
10051;DHT22;5065;46.942;7.432;2024-02-28T09:46:44;9.30;99.90
10051;DHT22;5065;46.942;7.432;2024-02-28T09:49:11;9.40;99.90
10051;DHT22;5065;46.942;7.432;2024-02-28T09:51:40;9.50;99.90
10051;DHT22;5065;46.942;7.432;2024-02-28T09:54:07;9.50;99.90
10051;DHT22;5065;46.942;7.432;2024-02-28T09:56:34;9.60;99.90
10051;DHT22;5065;46.942;7.432;2024-02-28T09:59:03;9.60;99.90
10051;DHT22;5065;46.942;7.432;2024-02-28T10:01:30;9.60;99.90
10051;DHT22;5065;46.942;7.432;2024-02-28T10:04:01;9.60;99.90
10051;DHT22;5065;46.942;7.432;2024-02-28T10:06:28;9.60;99.90
10051;DHT22;5065;46.942;7.432;2024-02-28T10:08:57;9.60;99.90
10051;DHT22;5065;46.942;7.432;2024-02-28T10:11:24;9.70;99.90
10051;DHT22;5065;46.942;7.432;2024-02-28T10:13:52;9.70;99.90
10051;DHT22;5065;46.942;7.432;2024-02-28T10:16:21;9.80;99.90
10051;DHT22;5065;46.942;7.432;2024-02-28T10:18:48;9.80;99.90
10051;DHT22;5065;46.942;7.432;2024-02-28T10:21:15;9.80;99.90
10051;DHT22;5065;46.942;7.432;2024-02-28T10:23:44;9.80;99.90
10051;DHT22;5065;46.942;7.432;2024-02-28T10:26:13;9.80;99.90
10051;DHT22;5065;46.942;7.432;2024-02-28T10:28:40;9.80;99.90
10051;DHT22;5065;46.942;7.432;2024-02-28T10:31:09;9.90;99.90
10051;DHT22;5065;46.942;7.432;2024-02-28T10:33:37;9.90;99.90
10051;DHT22;5065;46.942;7.432;2024-02-28T10:36:06;9.80;99.90
10051;DHT22;5065;46.942;7.432;2024-02-28T10:38:33;9.80;99.90
10051;DHT22;5065;46.942;7.432;2024-02-28T10:41:02;9.90;99.90
10051;DHT22;5065;46.942;7.432;2024-02-28T10:43:31;10.00;99.90
10051;DHT22;5065;46.942;7.432;2024-02-28T10:46:00;10.10;99.90
10051;DHT22;5065;46.942;7.432;2024-02-28T10:48:28;10.00;99.90
10051;DHT22;5065;46.942;7.432;2024-02-28T10:50:55;10.00;99.90
10051;DHT22;5065;46.942;7.432;2024-02-28T10:53:26;10.00;99.90
10051;DHT22;5065;46.942;7.432;2024-02-28T10:56:02;10.00;99.90
10051;DHT22;5065;46.942;7.432;2024-02-28T10:58:34;9.90;99.90
10051;DHT22;5065;46.942;7.432;2024-02-28T11:01:02;10.00;99.90
10051;DHT22;5065;46.942;7.432;2024-02-28T11:03:30;10.00;99.90
10051;DHT22;5065;46.942;7.432;2024-02-28T11:05:58;10.00;99.90
10051;DHT22;5065;46.942;7.432;2024-02-28T11:08:27;9.90;99.90
10051;DHT22;5065;46.942;7.432;2024-02-28T11:10:55;9.80;99.90
10051;DHT22;5065;46.942;7.432;2024-02-28T11:13:23;9.90;99.90
10051;DHT22;5065;46.942;7.432;2024-02-28T11:15:52;9.90;99.90
10051;DHT22;5065;46.942;7.432;2024-02-28T11:18:21;9.80;99.90
10051;DHT22;5065;46.942;7.432;2024-02-28T11:20:48;9.90;99.90
10051;DHT22;5065;46.942;7.432;2024-02-28T11:23:17;10.00;99.90
10051;DHT22;5065;46.942;7.432;2024-02-28T11:25:44;10.10;99.90
10051;DHT22;5065;46.942;7.432;2024-02-28T11:28:12;10.20;99.90
10051;DHT22;5065;46.942;7.432;2024-02-28T11:30:40;10.30;99.90
10051;DHT22;5065;46.942;7.432;2024-02-28T11:33:08;10.40;99.90
10051;DHT22;5065;46.942;7.432;2024-02-28T11:35:35;10.40;99.90
10051;DHT22;5065;46.942;7.432;2024-02-28T11:38:06;10.50;99.90
10051;DHT22;5065;46.942;7.432;2024-02-28T11:40:35;10.60;99.90
10051;DHT22;5065;46.942;7.432;2024-02-28T11:43:03;10.70;99.90
10051;DHT22;5065;46.942;7.432;2024-02-28T11:45:30;10.70;99.90
10051;DHT22;5065;46.942;7.432;2024-02-28T11:47:57;10.80;99.90
10051;DHT22;5065;46.942;7.432;2024-02-28T11:50:26;10.80;99.90
10051;DHT22;5065;46.942;7.432;2024-02-28T11:52:56;10.80;99.90
10051;DHT22;5065;46.942;7.432;2024-02-28T11:55:25;10.90;99.90
10051;DHT22;5065;46.942;7.432;2024-02-28T11:57:52;10.90;99.90
10051;DHT22;5065;46.942;7.432;2024-02-28T12:00:19;10.90;99.90
10051;DHT22;5065;46.942;7.432;2024-02-28T12:02:46;10.70;99.90
10051;DHT22;5065;46.942;7.432;2024-02-28T12:05:13;10.60;99.90
10051;DHT22;5065;46.942;7.432;2024-02-28T12:07:42;10.70;99.90
10051;DHT22;5065;46.942;7.432;2024-02-28T12:10:10;10.70;99.90
10051;DHT22;5065;46.942;7.432;2024-02-28T12:12:38;10.70;99.90
10051;DHT22;5065;46.942;7.432;2024-02-28T12:15:07;10.60;99.90
10051;DHT22;5065;46.942;7.432;2024-02-28T12:17:36;10.70;99.90
10051;DHT22;5065;46.942;7.432;2024-02-28T12:20:04;10.80;99.90
10051;DHT22;5065;46.942;7.432;2024-02-28T12:22:31;10.80;99.90
10051;DHT22;5065;46.942;7.432;2024-02-28T12:25:00;10.80;99.90
10051;DHT22;5065;46.942;7.432;2024-02-28T12:27:30;10.90;99.90
10051;DHT22;5065;46.942;7.432;2024-02-28T12:29:57;10.90;99.90
10051;DHT22;5065;46.942;7.432;2024-02-28T12:32:26;11.00;99.90
10051;DHT22;5065;46.942;7.432;2024-02-28T12:34:53;11.00;99.90
10051;DHT22;5065;46.942;7.432;2024-02-28T12:37:20;10.80;99.90
10051;DHT22;5065;46.942;7.432;2024-02-28T12:39:48;10.80;99.90
10051;DHT22;5065;46.942;7.432;2024-02-28T12:42:18;10.80;99.90
10051;DHT22;5065;46.942;7.432;2024-02-28T12:44:46;10.80;99.90
10051;DHT22;5065;46.942;7.432;2024-02-28T12:47:13;10.80;99.90
10051;DHT22;5065;46.942;7.432;2024-02-28T12:49:40;10.70;99.90
10051;DHT22;5065;46.942;7.432;2024-02-28T12:52:07;10.70;99.90
10051;DHT22;5065;46.942;7.432;2024-02-28T12:54:34;10.70;99.90
10051;DHT22;5065;46.942;7.432;2024-02-28T12:57:01;10.70;99.90
10051;DHT22;5065;46.942;7.432;2024-02-28T12:59:34;10.70;99.90
10051;DHT22;5065;46.942;7.432;2024-02-28T13:02:01;10.70;99.90
10051;DHT22;5065;46.942;7.432;2024-02-28T13:04:28;10.70;99.90
10051;DHT22;5065;46.942;7.432;2024-02-28T13:06:56;10.70;99.90
10051;DHT22;5065;46.942;7.432;2024-02-28T13:09:23;10.70;99.90
10051;DHT22;5065;46.942;7.432;2024-02-28T13:11:50;10.60;99.90
10051;DHT22;5065;46.942;7.432;2024-02-28T13:14:17;10.60;99.90
10051;DHT22;5065;46.942;7.432;2024-02-28T13:16:46;10.60;99.90
10051;DHT22;5065;46.942;7.432;2024-02-28T13:19:14;10.60;99.90
10051;DHT22;5065;46.942;7.432;2024-02-28T13:21:42;10.60;99.90
10051;DHT22;5065;46.942;7.432;2024-02-28T13:24:09;10.50;99.90
10051;DHT22;5065;46.942;7.432;2024-02-28T13:26:37;10.50;99.90
10051;DHT22;5065;46.942;7.432;2024-02-28T13:29:04;10.50;99.90
10051;DHT22;5065;46.942;7.432;2024-02-28T13:31:31;10.50;99.90
10051;DHT22;5065;46.942;7.432;2024-02-28T13:34:00;10.50;99.90
10051;DHT22;5065;46.942;7.432;2024-02-28T13:36:28;10.40;99.90
10051;DHT22;5065;46.942;7.432;2024-02-28T13:38:58;10.40;99.90
10051;DHT22;5065;46.942;7.432;2024-02-28T13:41:25;10.50;99.90
10051;DHT22;5065;46.942;7.432;2024-02-28T13:43:52;10.40;99.90
10051;DHT22;5065;46.942;7.432;2024-02-28T13:46:19;10.40;99.90
10051;DHT22;5065;46.942;7.432;2024-02-28T13:48:47;10.50;99.90
10051;DHT22;5065;46.942;7.432;2024-02-28T13:51:15;10.40;99.90
10051;DHT22;5065;46.942;7.432;2024-02-28T13:53:43;10.30;99.90
10051;DHT22;5065;46.942;7.432;2024-02-28T13:56:11;10.30;99.90
10051;DHT22;5065;46.942;7.432;2024-02-28T13:58:38;10.30;99.90
10051;DHT22;5065;46.942;7.432;2024-02-28T14:01:05;10.40;99.90
10051;DHT22;5065;46.942;7.432;2024-02-28T14:03:33;10.40;99.90
10051;DHT22;5065;46.942;7.432;2024-02-28T14:06:00;10.50;99.90
10051;DHT22;5065;46.942;7.432;2024-02-28T14:08:28;10.40;99.90
10051;DHT22;5065;46.942;7.432;2024-02-28T14:10:55;10.50;99.90
10051;DHT22;5065;46.942;7.432;2024-02-28T14:13:24;10.60;99.90
10051;DHT22;5065;46.942;7.432;2024-02-28T14:15:51;10.60;99.90
10051;DHT22;5065;46.942;7.432;2024-02-28T14:18:20;10.60;99.90
10051;DHT22;5065;46.942;7.432;2024-02-28T14:20:47;10.60;99.90
10051;DHT22;5065;46.942;7.432;2024-02-28T14:23:14;10.60;99.90
10051;DHT22;5065;46.942;7.432;2024-02-28T14:25:42;10.70;99.90
10051;DHT22;5065;46.942;7.432;2024-02-28T14:28:10;10.60;99.90
10051;DHT22;5065;46.942;7.432;2024-02-28T14:30:39;10.70;99.90
10051;DHT22;5065;46.942;7.432;2024-02-28T14:33:05;10.60;99.90
10051;DHT22;5065;46.942;7.432;2024-02-28T14:35:34;10.60;99.90
10051;DHT22;5065;46.942;7.432;2024-02-28T14:38:04;10.60;99.90
10051;DHT22;5065;46.942;7.432;2024-02-28T14:40:32;10.60;99.90
10051;DHT22;5065;46.942;7.432;2024-02-28T14:43:01;10.60;99.90
10051;DHT22;5065;46.942;7.432;2024-02-28T14:45:28;10.60;99.90
10051;DHT22;5065;46.942;7.432;2024-02-28T14:47:57;10.60;99.90
10051;DHT22;5065;46.942;7.432;2024-02-28T14:50:24;10.70;99.90
10051;DHT22;5065;46.942;7.432;2024-02-28T14:52:51;10.60;99.90
10051;DHT22;5065;46.942;7.432;2024-02-28T14:55:18;10.60;99.90
10051;DHT22;5065;46.942;7.432;2024-02-28T14:57:45;10.70;99.90
10051;DHT22;5065;46.942;7.432;2024-02-28T15:00:14;10.70;99.90
10051;DHT22;5065;46.942;7.432;2024-02-28T15:02:42;10.70;99.90
10051;DHT22;5065;46.942;7.432;2024-02-28T15:05:11;10.70;99.90
10051;DHT22;5065;46.942;7.432;2024-02-28T15:07:38;10.70;99.90
10051;DHT22;5065;46.942;7.432;2024-02-28T15:10:06;10.70;99.90
10051;DHT22;5065;46.942;7.432;2024-02-28T15:12:34;10.60;99.90
10051;DHT22;5065;46.942;7.432;2024-02-28T15:15:04;10.70;99.90
10051;DHT22;5065;46.942;7.432;2024-02-28T15:17:33;10.70;99.90
10051;DHT22;5065;46.942;7.432;2024-02-28T15:20:00;10.70;99.90
10051;DHT22;5065;46.942;7.432;2024-02-28T15:22:28;10.60;99.90
10051;DHT22;5065;46.942;7.432;2024-02-28T15:24:56;10.60;99.90
10051;DHT22;5065;46.942;7.432;2024-02-28T15:27:23;10.50;99.90
10051;DHT22;5065;46.942;7.432;2024-02-28T15:29:50;10.50;99.90
10051;DHT22;5065;46.942;7.432;2024-02-28T15:32:17;10.50;99.90
10051;DHT22;5065;46.942;7.432;2024-02-28T15:34:45;10.60;99.90
10051;DHT22;5065;46.942;7.432;2024-02-28T15:37:13;10.60;99.90
10051;DHT22;5065;46.942;7.432;2024-02-28T15:39:40;10.60;99.90
10051;DHT22;5065;46.942;7.432;2024-02-28T15:42:07;10.60;99.90
10051;DHT22;5065;46.942;7.432;2024-02-28T15:44:34;10.50;99.90
10051;DHT22;5065;46.942;7.432;2024-02-28T15:47:01;10.50;99.90
10051;DHT22;5065;46.942;7.432;2024-02-28T15:49:28;10.40;99.90
10051;DHT22;5065;46.942;7.432;2024-02-28T15:51:57;10.40;99.90
10051;DHT22;5065;46.942;7.432;2024-02-28T15:54:24;10.40;99.90
10051;DHT22;5065;46.942;7.432;2024-02-28T15:56:52;10.40;99.90
10051;DHT22;5065;46.942;7.432;2024-02-28T15:59:19;10.50;99.90